Time;durP1;ratioP1;P1;durP2;ratioP2;P2;SDS_P1;SDS_P2;PMS_P1;PMS_P2;Temp;Humidity;BMP_temperature;BMP_pressure;BME280_temperature;BME280_humidity;BME280_pressure;Samples;Min_cycle;Max_cycle;Signal;HPM_P1;HPM_P2
2023/05/28 00:01:05;;;;;;;7.73;3.50;;;22.10;99.90;;;;;;6197403;23;20192;-96
2023/05/28 00:03:37;;;;;;;9.47;3.50;;;22.10;99.90;;;;;;6197053;23;20177;-96
2023/05/28 00:06:13;;;;;;;9.67;3.43;;;22.00;99.90;;;;;;6197607;23;20643;-96
2023/05/28 00:08:45;;;;;;;9.80;3.67;;;22.10;99.90;;;;;;6195377;23;20204;-95
2023/05/28 00:11:17;;;;;;;8.10;3.80;;;22.20;99.90;;;;;;6197661;23;20189;-96
2023/05/28 00:13:50;;;;;;;8.60;3.40;;;22.40;99.90;;;;;;6200318;23;20173;-94
2023/05/28 00:16:24;;;;;;;14.50;4.10;;;22.50;99.90;;;;;;6193483;23;20282;-96
2023/05/28 00:18:56;;;;;;;9.83;3.63;;;22.60;99.90;;;;;;6194120;23;20204;-94
2023/05/28 00:21:32;;;;;;;11.13;3.13;;;22.50;99.90;;;;;;6193635;23;20180;-96
2023/05/28 00:24:05;;;;;;;12.23;4.00;;;22.40;99.90;;;;;;6191071;23;20215;-96
2023/05/28 00:26:37;;;;;;;7.97;3.60;;;22.30;99.90;;;;;;6191992;23;20228;-95
2023/05/28 00:29:10;;;;;;;9.20;3.83;;;21.80;99.90;;;;;;6187452;23;20228;-95
2023/05/28 00:31:42;;;;;;;9.53;3.60;;;21.50;99.90;;;;;;6189794;23;20204;-95
2023/05/28 00:34:15;;;;;;;7.43;3.60;;;22.00;99.90;;;;;;6189680;23;20177;-95
2023/05/28 00:36:55;;;;;;;8.33;3.23;;;22.00;99.90;;;;;;6191772;23;20173;-94
2023/05/28 00:39:26;;;;;;;8.63;3.70;;;22.30;99.90;;;;;;6194731;23;20195;-94
2023/05/28 00:42:14;;;;;;;10.23;3.73;;;22.60;99.90;;;;;;6193598;23;20180;-96
2023/05/28 00:45:09;;;;;;;9.27;3.40;;;22.80;99.90;;;;;;6202325;23;20241;-93
2023/05/28 00:47:41;;;;;;;12.00;3.60;;;23.00;99.90;;;;;;6209267;23;20157;-95
2023/05/28 00:50:16;;;;;;;8.77;3.67;;;22.90;99.90;;;;;;6186418;23;20176;-96
2023/05/28 00:52:55;;;;;;;10.77;3.50;;;23.20;99.90;;;;;;6209728;23;20177;-96
2023/05/28 00:55:29;;;;;;;9.60;4.20;;;23.80;99.90;;;;;;6204223;23;20192;-96
2023/05/28 00:58:05;;;;;;;9.63;3.70;;;24.50;99.90;;;;;;6203588;23;20187;-96
2023/05/28 01:00:39;;;;;;;10.70;3.53;;;24.60;99.90;;;;;;6197094;23;20187;-96
2023/05/28 01:03:11;;;;;;;9.57;3.30;;;24.80;99.90;;;;;;6198204;23;20185;-96
2023/05/28 01:05:43;;;;;;;8.33;3.37;;;25.30;99.90;;;;;;6198864;23;20626;-96
2023/05/28 01:08:17;;;;;;;10.47;3.67;;;25.40;99.90;;;;;;6196075;23;20770;-96
2023/05/28 01:10:52;;;;;;;8.13;3.23;;;25.70;99.90;;;;;;6199095;23;20177;-96
2023/05/28 01:13:24;;;;;;;10.97;3.23;;;25.40;99.90;;;;;;6199991;23;20180;-96
2023/05/28 01:15:56;;;;;;;6.30;3.60;;;25.20;99.90;;;;;;6194289;23;20203;-96
2023/05/28 01:18:29;;;;;;;9.73;3.50;;;25.10;99.90;;;;;;6193642;23;20244;-96
2023/05/28 01:21:03;;;;;;;12.07;3.23;;;24.60;99.90;;;;;;6190680;23;20173;-94
2023/05/28 01:23:42;;;;;;;11.40;4.03;;;25.00;99.90;;;;;;6192679;23;20176;-95
2023/05/28 01:26:17;;;;;;;13.77;3.50;;;25.20;99.90;;;;;;6193574;23;20488;-93
2023/05/28 01:28:49;;;;;;;11.13;3.83;;;25.70;99.90;;;;;;6203496;23;20198;-93
2023/05/28 01:31:22;;;;;;;7.50;3.07;;;25.90;99.90;;;;;;6213774;23;20165;-94
2023/05/28 01:33:55;;;;;;;11.43;3.67;;;26.30;99.90;;;;;;6210969;23;20204;-93
2023/05/28 01:36:32;;;;;;;12.20;4.23;;;26.50;99.90;;;;;;6196149;23;20245;-95
2023/05/28 01:39:12;;;;;;;9.10;3.50;;;26.70;99.90;;;;;;6190950;23;20219;-95
2023/05/28 01:41:45;;;;;;;9.47;3.70;;;26.80;99.90;;;;;;6190359;23;20197;-93
2023/05/28 01:44:20;;;;;;;12.13;3.90;;;26.20;99.90;;;;;;6164966;23;20247;-94
2023/05/28 01:46:54;;;;;;;9.60;3.23;;;25.80;99.90;;;;;;6190837;23;20196;-94
2023/05/28 01:49:27;;;;;;;10.80;4.00;;;25.50;99.90;;;;;;6188399;23;20279;-94
2023/05/28 01:52:02;;;;;;;11.80;3.53;;;25.50;99.90;;;;;;6190825;23;20173;-93
2023/05/28 01:54:36;;;;;;;10.40;3.30;;;25.50;99.90;;;;;;6193393;23;20251;-95
2023/05/28 01:57:07;;;;;;;9.73;3.23;;;25.60;99.90;;;;;;6192664;23;20612;-96
2023/05/28 01:59:41;;;;;;;9.73;3.73;;;25.70;99.90;;;;;;6194548;23;20256;-96
2023/05/28 02:02:13;;;;;;;10.93;3.40;;;25.40;99.90;;;;;;6193775;23;20200;-96
2023/05/28 02:04:46;;;;;;;10.03;3.37;;;24.90;99.90;;;;;;6194113;23;20177;-96
2023/05/28 02:07:19;;;;;;;9.73;3.87;;;23.70;99.90;;;;;;6194158;23;20195;-96
2023/05/28 02:09:54;;;;;;;9.17;3.67;;;23.40;99.90;;;;;;6194651;23;20201;-96
2023/05/28 02:12:26;;;;;;;8.10;3.10;;;23.20;99.90;;;;;;6199413;23;20271;-96
2023/05/28 02:15:02;;;;;;;9.10;3.40;;;23.10;99.90;;;;;;6202069;23;20273;-96
2023/05/28 02:17:35;;;;;;;9.43;3.57;;;22.60;99.90;;;;;;6206700;23;20172;-96
2023/05/28 02:22:50;;;;;;;8.57;3.87;;;22.30;99.90;;;;;;6160603;23;20225;-96
2023/05/28 02:25:28;;;;;;;11.30;3.97;;;22.10;99.90;;;;;;6137327;23;20181;-96
2023/05/28 02:28:01;;;;;;;9.93;3.43;;;21.90;99.90;;;;;;6133332;23;20178;-96
2023/05/28 02:30:33;;;;;;;11.37;3.77;;;21.70;99.90;;;;;;6133893;23;20285;-95
2023/05/28 02:33:06;;;;;;;8.03;3.20;;;21.60;99.90;;;;;;6134732;23;20242;-96
2023/05/28 02:35:39;;;;;;;9.90;3.40;;;21.50;99.90;;;;;;6134874;23;20588;-95
2023/05/28 02:38:12;;;;;;;14.60;4.57;;;21.50;99.90;;;;;;6132551;23;20198;-95
2023/05/28 02:40:47;;;;;;;10.80;3.60;;;21.40;99.90;;;;;;6134579;23;20620;-96
2023/05/28 02:43:19;;;;;;;11.30;3.50;;;21.20;99.90;;;;;;6134389;23;20222;-96
2023/05/28 02:45:50;;;;;;;10.33;4.20;;;21.10;99.90;;;;;;6132930;23;20179;-96
2023/05/28 02:48:23;;;;;;;13.73;4.27;;;21.10;99.90;;;;;;6148021;23;20194;-96
2023/05/28 02:50:54;;;;;;;9.53;4.23;;;21.00;99.90;;;;;;6151730;23;20230;-96
2023/05/28 02:53:31;;;;;;;9.70;4.00;;;20.80;99.90;;;;;;6151505;23;20226;-96
2023/05/28 02:56:06;;;;;;;14.83;5.83;;;20.70;99.90;;;;;;6152964;23;20162;-96
2023/05/28 02:58:39;;;;;;;20.53;10.03;;;20.40;99.90;;;;;;6151558;23;20166;-96
2023/05/28 03:01:11;;;;;;;11.77;4.23;;;20.30;99.90;;;;;;6129057;23;20214;-96
2023/05/28 03:03:47;;;;;;;13.03;4.27;;;20.20;99.90;;;;;;6152828;23;20231;-96
2023/05/28 03:06:23;;;;;;;11.27;4.87;;;20.20;99.90;;;;;;6146756;23;20177;-96
2023/05/28 03:08:55;;;;;;;8.47;3.10;;;20.20;99.90;;;;;;6144300;23;20181;-96
2023/05/28 03:11:31;;;;;;;7.23;3.80;;;20.20;99.90;;;;;;6146744;23;20225;-96
2023/05/28 03:14:05;;;;;;;11.17;3.40;;;20.00;99.90;;;;;;6127339;23;20178;-96
2023/05/28 03:16:43;;;;;;;10.50;3.23;;;20.00;99.90;;;;;;6139252;23;20227;-96
2023/05/28 03:19:16;;;;;;;9.13;3.47;;;20.00;99.90;;;;;;6182741;23;20170;-96
2023/05/28 03:21:54;;;;;;;9.53;3.07;;;19.90;99.90;;;;;;6181817;23;20182;-96
2023/05/28 03:24:30;;;;;;;8.93;3.33;;;19.90;99.90;;;;;;6181706;23;20185;-96
2023/05/28 03:27:05;;;;;;;8.87;3.33;;;19.80;99.90;;;;;;6159175;23;20185;-96
2023/05/28 03:29:39;;;;;;;8.27;3.10;;;19.70;99.90;;;;;;6178759;23;20201;-96
2023/05/28 03:32:10;;;;;;;7.43;3.53;;;19.60;99.90;;;;;;6167805;23;20205;-96
2023/05/28 03:34:42;;;;;;;10.67;3.37;;;19.60;99.90;;;;;;6169094;23;20560;-96
2023/05/28 03:37:16;;;;;;;12.50;3.70;;;19.50;99.90;;;;;;6174210;23;20226;-96
2023/05/28 03:39:46;;;;;;;9.27;3.03;;;19.40;99.90;;;;;;6177576;23;20186;-95
2023/05/28 03:42:20;;;;;;;9.20;3.13;;;19.30;99.90;;;;;;6169964;23;20170;-91
2023/05/28 03:44:51;;;;;;;10.47;3.17;;;19.10;99.90;;;;;;6178177;23;20193;-91
2023/05/28 03:47:24;;;;;;;13.33;3.83;;;19.00;99.90;;;;;;6154974;23;20178;-93
2023/05/28 03:49:55;;;;;;;10.47;3.73;;;18.90;99.90;;;;;;6156755;23;20205;-91
2023/05/28 03:52:27;;;;;;;15.60;4.13;;;18.90;99.90;;;;;;6161345;23;20217;-90
2023/05/28 03:55:02;;;;;;;9.17;3.00;;;18.90;99.90;;;;;;6179292;23;20235;-95
2023/05/28 04:02:54;;;;;;;12.63;3.30;;;18.70;99.90;;;;;;6117225;23;20201;-93
2023/05/28 04:05:33;;;;;;;10.47;3.00;;;18.60;99.90;;;;;;6120372;23;20186;-96
2023/05/28 04:08:05;;;;;;;12.27;3.60;;;18.60;99.90;;;;;;6119387;23;20182;-95
2023/05/28 04:10:39;;;;;;;10.37;4.00;;;18.50;99.90;;;;;;6121132;23;20227;-96
2023/05/28 04:13:12;;;;;;;11.37;2.97;;;18.40;99.90;;;;;;6122596;23;20167;-96
2023/05/28 04:15:45;;;;;;;11.57;3.47;;;18.30;99.90;;;;;;6122345;23;20171;-96
2023/05/28 04:18:20;;;;;;;9.47;3.00;;;18.20;99.90;;;;;;6122531;23;20180;-96
2023/05/28 04:20:51;;;;;;;9.20;3.10;;;18.10;99.90;;;;;;6121174;23;20198;-95
2023/05/28 04:23:23;;;;;;;9.70;2.80;;;18.10;99.90;;;;;;6108226;23;20206;-95
2023/05/28 04:25:56;;;;;;;8.50;3.40;;;18.10;99.90;;;;;;6109465;23;20182;-94
2023/05/28 04:28:28;;;;;;;10.83;3.63;;;18.00;99.90;;;;;;6114809;23;20179;-96
2023/05/28 04:31:01;;;;;;;13.33;3.13;;;17.90;99.90;;;;;;6108924;23;20261;-96
2023/05/28 04:33:36;;;;;;;10.43;3.50;;;17.90;99.90;;;;;;6114570;23;20179;-96
2023/05/28 04:36:13;;;;;;;9.97;3.20;;;17.80;99.90;;;;;;6116439;23;20159;-95
2023/05/28 04:38:46;;;;;;;12.43;2.80;;;17.70;99.90;;;;;;6113552;23;20182;-96
2023/05/28 04:41:21;;;;;;;10.00;3.17;;;17.70;99.90;;;;;;6113256;23;20190;-95
2023/05/28 04:43:55;;;;;;;13.27;3.03;;;17.50;99.90;;;;;;6110058;23;20195;-95
2023/05/28 04:46:29;;;;;;;13.73;3.97;;;17.50;99.90;;;;;;6106019;23;20237;-95
2023/05/28 04:49:02;;;;;;;13.30;3.13;;;17.30;99.90;;;;;;6112947;23;20179;-94
2023/05/28 11:24:02;;;;;;;15.03;4.50;;;10.80;99.90;;;;;;6150094;23;20506;-96
2023/05/28 11:26:35;;;;;;;14.03;3.87;;;10.80;99.90;;;;;;6152999;23;20186;-96
2023/05/28 11:29:12;;;;;;;10.97;3.47;;;10.80;99.90;;;;;;6128897;23;20177;-96
2023/05/28 11:31:46;;;;;;;15.10;4.00;;;10.80;99.90;;;;;;6148088;23;20210;-96
2023/05/28 11:34:22;;;;;;;15.13;3.73;;;10.90;99.90;;;;;;6118548;23;20225;-96
2023/05/28 11:36:54;;;;;;;14.90;4.63;;;10.80;99.90;;;;;;6149730;23;20220;-96
2023/05/28 11:39:30;;;;;;;19.37;4.93;;;10.80;99.90;;;;;;6152113;23;20178;-96
2023/05/28 11:42:03;;;;;;;9.63;3.60;;;10.80;99.90;;;;;;6151968;23;20166;-96
2023/05/28 11:44:36;;;;;;;12.00;4.70;;;10.70;99.90;;;;;;6152565;23;20162;-96
2023/05/28 11:47:09;;;;;;;9.40;4.27;;;10.60;99.90;;;;;;6147184;23;20227;-96
2023/05/28 11:49:43;;;;;;;12.23;4.30;;;10.50;99.90;;;;;;6187597;23;20184;-96
2023/05/28 11:52:16;;;;;;;12.43;4.30;;;10.50;99.90;;;;;;6212603;23;20193;-96
2023/05/28 11:54:56;;;;;;;14.70;4.63;;;10.40;99.90;;;;;;6211858;23;20171;-96
2023/05/28 11:57:33;;;;;;;11.67;4.40;;;10.40;99.90;;;;;;6212475;23;20227;-96
2023/05/28 12:11:04;;;;;;;13.63;4.33;;;10.10;99.90;;;;;;6142146;23;20270;-96
2023/05/28 12:13:44;;;;;;;10.87;4.60;;;10.00;99.90;;;;;;6210861;23;20205;-96
2023/05/28 12:27:07;;;;;;;13.93;4.30;;;9.80;99.90;;;;;;6117933;23;20196;-96
2023/05/28 12:29:41;;;;;;;8.80;4.00;;;9.90;99.90;;;;;;6168811;23;20180;-96
2023/05/28 12:32:14;;;;;;;9.73;3.90;;;9.80;99.90;;;;;;6142057;23;20256;-96
2023/05/28 12:34:47;;;;;;;16.37;4.97;;;9.80;99.90;;;;;;6166759;23;20182;-95
2023/05/28 12:37:18;;;;;;;17.37;4.70;;;9.80;99.90;;;;;;6167404;23;20174;-96
2023/05/28 12:39:51;;;;;;;15.37;4.40;;;9.70;99.90;;;;;;6166509;23;20208;-96
2023/05/28 12:42:26;;;;;;;12.70;4.27;;;9.60;99.90;;;;;;6164366;23;20192;-95
2023/05/28 12:44:58;;;;;;;12.80;4.50;;;9.60;99.90;;;;;;6161016;23;20188;-95
2023/05/28 12:47:31;;;;;;;18.57;5.60;;;9.50;99.90;;;;;;6163456;23;20189;-95
2023/05/28 12:50:02;;;;;;;15.70;4.70;;;9.50;99.90;;;;;;6161624;23;20232;-95
2023/05/28 12:52:36;;;;;;;10.97;4.07;;;9.50;99.90;;;;;;6163376;23;20236;-96
2023/05/28 12:55:08;;;;;;;16.13;4.53;;;9.50;99.90;;;;;;6165697;23;20181;-96
2023/05/28 12:57:48;;;;;;;16.73;4.53;;;9.50;99.90;;;;;;6164713;23;20212;-96
2023/05/28 13:00:19;;;;;;;14.20;4.90;;;9.50;99.90;;;;;;6162223;23;20180;-96
2023/05/28 13:02:55;;;;;;;15.17;4.30;;;9.50;99.90;;;;;;6166528;23;20201;-96
2023/05/28 13:05:27;;;;;;;10.03;4.07;;;9.50;99.90;;;;;;6177452;23;20169;-96
2023/05/28 13:08:00;;;;;;;13.17;4.80;;;9.50;99.90;;;;;;6176641;23;20194;-96
2023/05/28 13:10:31;;;;;;;11.20;4.20;;;9.50;99.90;;;;;;6177055;23;20237;-96
2023/05/28 13:13:06;;;;;;;12.70;4.00;;;9.60;99.90;;;;;;6179480;23;20166;-93
2023/05/28 13:31:57;;;;;;;12.80;3.67;;;9.90;99.90;;;;;;6138264;23;20212;-95
2023/05/28 13:34:29;;;;;;;9.27;4.00;;;9.90;99.90;;;;;;6145244;23;20209;-94
2023/05/28 13:37:02;;;;;;;12.10;3.83;;;9.90;99.90;;;;;;6138838;23;20209;-96
2023/05/28 13:39:37;;;;;;;13.97;4.23;;;10.00;99.90;;;;;;6141504;23;20499;-96
2023/05/28 13:42:10;;;;;;;13.83;4.43;;;10.00;99.90;;;;;;6142572;23;20182;-96
2023/05/28 13:44:45;;;;;;;11.80;3.47;;;10.00;99.90;;;;;;6114707;23;20192;-96
2023/05/28 13:47:21;;;;;;;9.50;3.53;;;10.00;99.90;;;;;;6117626;23;20202;-96
2023/05/28 13:49:53;;;;;;;10.67;3.87;;;10.10;99.90;;;;;;6138521;23;20178;-96
2023/05/28 13:52:25;;;;;;;11.57;4.30;;;10.10;99.90;;;;;;6147531;23;20218;-96
2023/05/28 13:54:58;;;;;;;14.87;4.90;;;10.10;99.90;;;;;;6145753;23;20185;-96
2023/05/28 13:57:30;;;;;;;11.17;3.73;;;10.10;99.90;;;;;;6135911;23;20206;-96
2023/05/28 14:00:06;;;;;;;12.47;4.47;;;10.10;99.90;;;;;;6133731;23;20171;-96
2023/05/28 14:02:45;;;;;;;10.27;3.40;;;10.30;99.90;;;;;;6134179;23;20213;-95
2023/05/28 14:37:17;;;;;;;14.60;5.50;;;11.20;99.90;;;;;;6140421;23;20200;-96
2023/05/28 14:39:58;;;;;;;11.83;5.20;;;11.10;99.90;;;;;;6084600;23;20179;-96
2023/05/28 14:42:43;;;;;;;12.00;5.10;;;11.20;99.90;;;;;;6088971;23;20190;-96
2023/05/28 14:45:19;;;;;;;12.93;5.77;;;11.40;99.90;;;;;;6085545;23;20184;-96
2023/05/28 14:47:51;;;;;;;13.50;5.50;;;11.40;99.90;;;;;;6082269;23;20183;-95
2023/05/28 14:50:25;;;;;;;13.77;5.40;;;11.40;99.90;;;;;;6091196;23;20183;-95
2023/05/28 14:53:06;;;;;;;12.10;5.33;;;11.40;99.90;;;;;;6116363;23;20207;-95
2023/05/28 14:55:39;;;;;;;16.57;5.77;;;11.60;99.90;;;;;;6084300;23;20194;-96
2023/05/28 14:58:12;;;;;;;14.90;5.33;;;11.50;99.90;;;;;;6087507;23;20175;-96
2023/05/28 15:00:44;;;;;;;16.30;5.20;;;11.70;99.90;;;;;;6114475;23;20179;-96
2023/05/28 15:03:16;;;;;;;11.03;4.57;;;11.90;99.90;;;;;;6089048;23;20630;-96
2023/05/28 15:05:49;;;;;;;19.50;5.20;;;12.10;99.90;;;;;;6106803;23;20171;-96
2023/05/28 15:08:25;;;;;;;12.57;5.03;;;12.10;99.90;;;;;;6114219;23;20186;-96
2023/05/28 15:10:58;;;;;;;12.20;4.90;;;12.10;99.90;;;;;;6120865;23;20207;-96
2023/05/28 15:18:54;;;;;;;15.17;5.23;;;12.10;99.90;;;;;;6083521;23;21127;-96
2023/05/28 15:21:26;;;;;;;14.77;4.63;;;12.30;99.90;;;;;;6110267;23;20179;-96
2023/05/28 15:24:00;;;;;;;13.20;4.90;;;12.30;99.90;;;;;;6083856;23;20261;-93
2023/05/28 15:26:33;;;;;;;16.20;4.50;;;12.30;99.90;;;;;;6080842;23;20190;-96
2023/05/28 15:29:06;;;;;;;14.33;4.90;;;12.50;99.90;;;;;;6117255;23;20182;-96
2023/05/28 15:31:39;;;;;;;12.03;4.77;;;12.60;99.90;;;;;;6092451;23;20191;-96
2023/05/28 15:34:11;;;;;;;18.23;5.03;;;12.80;99.90;;;;;;6091644;23;20195;-96
2023/05/28 15:36:44;;;;;;;19.33;5.00;;;12.90;99.90;;;;;;6134202;23;20202;-96
2023/05/28 15:39:25;;;;;;;15.87;5.00;;;12.50;99.90;;;;;;6147034;23;20198;-96
2023/05/28 15:41:59;;;;;;;14.97;5.00;;;12.40;99.90;;;;;;6142731;23;20186;-95
2023/05/28 15:44:32;;;;;;;20.60;5.63;;;12.50;99.90;;;;;;6132246;23;20557;-94
2023/05/28 15:47:04;;;;;;;17.43;5.40;;;12.40;99.90;;;;;;6133035;23;20201;-94
2023/05/28 15:49:36;;;;;;;17.17;5.33;;;12.20;99.90;;;;;;6133630;23;20369;-95
2023/05/28 15:52:08;;;;;;;19.47;5.30;;;12.30;99.90;;;;;;6138243;23;20230;-96
2023/05/28 15:54:42;;;;;;;15.53;5.50;;;12.30;99.90;;;;;;6137402;23;20246;-96
2023/05/28 15:57:14;;;;;;;17.13;5.73;;;12.20;99.90;;;;;;6134344;23;20253;-94
2023/05/28 15:59:45;;;;;;;14.53;5.60;;;12.40;99.90;;;;;;6141030;23;20218;-94
2023/05/28 16:04:53;;;;;;;19.27;5.40;;;12.60;99.90;;;;;;6097160;23;20200;-94
2023/05/28 16:15:28;;;;;;;15.63;5.40;;;13.00;99.90;;;;;;6132920;23;20290;-93
2023/05/28 16:23:20;;;;;;;15.43;5.40;;;12.90;99.90;;;;;;6081874;23;22304;-94
2023/05/28 16:31:13;;;;;;;17.17;5.97;;;13.30;99.90;;;;;;6144457;23;20225;-96
2023/05/28 17:38:27;;;;;;;12.37;5.10;;;14.90;99.90;;;;;;6171555;23;20449;-96
2023/05/28 17:41:01;;;;;;;13.13;4.87;;;14.60;99.90;;;;;;6143456;23;20252;-96
2023/05/28 17:43:33;;;;;;;9.97;4.50;;;14.70;99.90;;;;;;6130899;23;20209;-96
2023/05/28 17:54:08;;;;;;;10.50;4.30;;;15.00;99.90;;;;;;6131124;23;20322;-89
2023/05/28 17:56:40;;;;;;;8.80;3.53;;;15.20;99.90;;;;;;6124689;23;20526;-89
2023/05/28 17:59:12;;;;;;;8.33;3.70;;;15.40;99.90;;;;;;6129406;23;20175;-89
2023/05/28 18:01:44;;;;;;;10.00;4.03;;;15.60;99.90;;;;;;6125877;23;20167;-89
2023/05/28 18:04:16;;;;;;;13.40;4.87;;;15.40;99.90;;;;;;6124770;23;20241;-90
2023/05/28 18:06:47;;;;;;;10.43;4.53;;;15.70;99.90;;;;;;6127872;23;20185;-88
2023/05/28 18:09:21;;;;;;;8.80;3.83;;;15.10;99.90;;;;;;6103140;23;20181;-88
2023/05/28 18:11:52;;;;;;;8.77;4.40;;;14.50;99.90;;;;;;6134085;23;20246;-89
2023/05/28 18:14:29;;;;;;;12.73;4.47;;;14.50;99.90;;;;;;6128078;23;20287;-88
2023/05/28 18:17:02;;;;;;;11.13;4.00;;;14.50;99.90;;;;;;6127328;23;20597;-89
2023/05/28 18:19:34;;;;;;;10.70;4.23;;;14.90;99.90;;;;;;6126542;23;20264;-89
2023/05/28 18:22:05;;;;;;;12.53;4.67;;;14.60;99.90;;;;;;6128733;23;20262;-88
2023/05/28 18:24:41;;;;;;;13.97;4.50;;;14.60;99.90;;;;;;6128016;23;20512;-92
2023/05/28 18:27:12;;;;;;;12.23;4.33;;;15.00;99.90;;;;;;6127132;23;20260;-88
2023/05/28 18:29:44;;;;;;;14.73;4.60;;;15.30;99.90;;;;;;6127787;23;20162;-88
2023/05/28 18:32:15;;;;;;;16.90;4.70;;;15.50;99.90;;;;;;6102680;23;20631;-89
2023/05/28 18:34:46;;;;;;;13.50;5.33;;;15.90;99.90;;;;;;6128059;23;20185;-89
2023/05/28 18:37:18;;;;;;;11.63;4.27;;;15.90;99.90;;;;;;6128136;23;20524;-89
2023/05/28 18:39:52;;;;;;;11.60;4.77;;;16.10;99.90;;;;;;6127338;23;20178;-88
2023/05/28 18:42:24;;;;;;;11.47;4.83;;;15.80;99.90;;;;;;6106098;23;20241;-88
2023/05/28 18:44:57;;;;;;;10.87;4.40;;;15.80;99.90;;;;;;6140944;23;20236;-88
2023/05/28 18:47:30;;;;;;;13.93;5.60;;;16.00;99.90;;;;;;6140830;23;20374;-88
2023/05/28 18:50:02;;;;;;;12.27;4.83;;;16.10;99.90;;;;;;6138136;23;20171;-89
2023/05/28 18:52:34;;;;;;;15.60;5.73;;;15.90;99.90;;;;;;6130969;23;20574;-88
2023/05/28 18:55:08;;;;;;;13.83;4.40;;;16.10;99.90;;;;;;6129246;23;20250;-88
2023/05/28 18:57:40;;;;;;;10.57;5.47;;;16.20;99.90;;;;;;6126135;23;20182;-93
2023/05/28 19:00:12;;;;;;;13.57;5.30;;;16.20;99.90;;;;;;6128722;23;20679;-88
2023/05/28 19:02:44;;;;;;;15.03;4.87;;;15.90;99.90;;;;;;6128197;23;20175;-89
2023/05/28 19:05:16;;;;;;;12.33;5.47;;;15.90;99.90;;;;;;6127009;23;20229;-89
2023/05/28 19:07:47;;;;;;;10.63;5.27;;;15.80;99.90;;;;;;6126273;23;20245;-89
2023/05/28 19:10:21;;;;;;;14.30;5.80;;;16.10;99.90;;;;;;6127943;23;20262;-89
2023/05/28 19:12:52;;;;;;;12.77;5.23;;;16.40;99.90;;;;;;6126381;23;20194;-89
2023/05/28 19:15:23;;;;;;;11.43;5.50;;;16.70;99.90;;;;;;6127653;23;20206;-89
2023/05/28 19:17:54;;;;;;;11.43;5.07;;;16.60;99.90;;;;;;6126025;23;20601;-89
2023/05/28 19:20:26;;;;;;;9.10;5.30;;;16.60;99.90;;;;;;6103932;23;20182;-89
2023/05/28 19:22:57;;;;;;;14.90;5.77;;;16.60;99.90;;;;;;6138423;23;20730;-89
2023/05/28 19:25:31;;;;;;;13.13;6.33;;;16.50;99.90;;;;;;6134977;23;20814;-90
2023/05/28 19:28:03;;;;;;;11.70;5.83;;;16.30;99.90;;;;;;6129081;23;20178;-88
2023/05/28 19:30:34;;;;;;;14.53;6.07;;;16.30;99.90;;;;;;6130266;23;20178;-87
2023/05/28 19:33:06;;;;;;;14.53;6.40;;;16.20;99.90;;;;;;6129023;23;20506;-89
2023/05/28 19:35:37;;;;;;;16.27;7.13;;;16.30;99.90;;;;;;6129294;23;20618;-89
2023/05/28 19:38:08;;;;;;;13.87;6.43;;;16.10;99.90;;;;;;6128918;23;20193;-89
2023/05/28 19:40:40;;;;;;;11.80;6.20;;;16.20;99.90;;;;;;6132946;23;20179;-91
2023/05/28 19:43:12;;;;;;;13.43;6.40;;;16.50;99.90;;;;;;6130147;23;20192;-88
2023/05/28 19:45:44;;;;;;;12.43;6.50;;;17.00;99.90;;;;;;6134869;23;20178;-90
2023/05/28 19:48:16;;;;;;;15.73;7.37;;;16.90;99.90;;;;;;6133226;23;20171;-88
2023/05/28 19:50:48;;;;;;;13.80;7.83;;;17.10;99.90;;;;;;6140952;23;20186;-87
2023/05/28 19:53:20;;;;;;;16.10;7.93;;;16.60;99.90;;;;;;6141055;23;21056;-89
2023/05/28 19:55:53;;;;;;;14.80;7.90;;;16.00;99.90;;;;;;6138518;23;20549;-89
2023/05/28 19:58:24;;;;;;;16.40;7.63;;;16.10;99.90;;;;;;6125271;23;20186;-90
2023/05/28 20:00:56;;;;;;;17.97;7.73;;;16.50;99.90;;;;;;6126136;23;20182;-90
2023/05/28 20:03:26;;;;;;;14.87;8.13;;;16.90;99.90;;;;;;6127156;23;20182;-89
2023/05/28 20:05:57;;;;;;;14.07;8.20;;;17.20;99.90;;;;;;6126150;23;20174;-89
2023/05/28 20:08:28;;;;;;;15.33;8.50;;;17.30;99.90;;;;;;6125604;23;20178;-89
2023/05/28 20:11:01;;;;;;;15.70;8.70;;;17.50;99.90;;;;;;6126611;23;20253;-87
2023/05/28 20:13:32;;;;;;;18.80;8.87;;;17.50;99.90;;;;;;6126452;23;20213;-88
2023/05/28 20:16:03;;;;;;;13.40;8.70;;;17.40;99.90;;;;;;6125383;23;20610;-88
2023/05/28 20:18:36;;;;;;;14.57;8.80;;;17.30;99.90;;;;;;6126395;23;20187;-90
2023/05/28 20:21:07;;;;;;;17.40;8.50;;;17.80;99.90;;;;;;6100248;23;20189;-89
2023/05/28 20:23:38;;;;;;;13.93;8.23;;;18.00;99.90;;;;;;6127238;23;20186;-89
2023/05/28 20:26:11;;;;;;;12.20;7.27;;;17.90;99.90;;;;;;6126422;23;20237;-89
2023/05/28 20:28:41;;;;;;;15.37;8.10;;;17.90;99.90;;;;;;6124914;23;20179;-88
2023/05/28 20:31:12;;;;;;;15.47;8.47;;;17.40;99.90;;;;;;6126967;23;20210;-88
2023/05/28 20:33:44;;;;;;;13.67;7.73;;;17.30;99.90;;;;;;6126408;23;20206;-87
2023/05/28 20:36:16;;;;;;;14.20;9.20;;;17.60;99.90;;;;;;6126393;23;20916;-87
2023/05/28 20:38:46;;;;;;;11.50;7.43;;;17.20;99.90;;;;;;6124504;23;20185;-87
2023/05/28 20:41:19;;;;;;;16.13;8.73;;;17.40;99.90;;;;;;6123240;23;20186;-87
2023/05/28 20:43:50;;;;;;;14.80;8.80;;;17.40;99.90;;;;;;6123207;23;20190;-87
2023/05/28 20:46:21;;;;;;;18.80;8.53;;;17.50;99.90;;;;;;6126130;23;20265;-90
2023/05/28 20:48:52;;;;;;;15.70;8.67;;;17.30;99.90;;;;;;6128677;23;20182;-88
2023/05/28 20:51:24;;;;;;;14.20;7.70;;;17.60;99.90;;;;;;6148469;23;20178;-94
2023/05/28 20:54:00;;;;;;;14.30;7.83;;;17.20;99.90;;;;;;6147809;23;20194;-88
2023/05/28 20:56:35;;;;;;;13.93;7.43;;;17.60;99.90;;;;;;6129929;23;20261;-89
2023/05/28 20:59:06;;;;;;;11.63;7.23;;;17.40;99.90;;;;;;6128866;23;20170;-91
2023/05/28 21:01:39;;;;;;;13.30;8.00;;;17.70;99.90;;;;;;6106418;23;20175;-93
2023/05/28 21:04:12;;;;;;;11.83;7.90;;;17.60;99.90;;;;;;6126249;23;20166;-90
2023/05/28 21:06:44;;;;;;;14.00;7.70;;;17.50;99.90;;;;;;6127924;23;20170;-93
2023/05/28 21:09:17;;;;;;;16.60;7.47;;;17.50;99.90;;;;;;6126364;23;20265;-91
2023/05/28 21:11:54;;;;;;;14.77;7.37;;;17.50;99.90;;;;;;6126963;23;20177;-92
2023/05/28 21:14:26;;;;;;;13.33;7.47;;;17.40;99.90;;;;;;6127459;23;20201;-93
2023/05/28 21:16:58;;;;;;;13.83;7.30;;;17.60;99.90;;;;;;6127673;23;20183;-93
2023/05/28 21:19:33;;;;;;;14.33;7.47;;;17.80;99.90;;;;;;6126421;23;20178;-91
2023/05/28 21:22:05;;;;;;;19.13;8.57;;;17.80;99.90;;;;;;6126365;23;20186;-92
2023/05/28 21:24:37;;;;;;;12.77;6.87;;;17.90;99.90;;;;;;6127077;23;20292;-91
2023/05/28 21:27:11;;;;;;;13.87;6.73;;;18.20;99.90;;;;;;6078814;23;20201;-92
2023/05/28 21:29:43;;;;;;;13.13;6.90;;;18.50;99.90;;;;;;6129953;23;20206;-92
2023/05/28 21:32:16;;;;;;;14.43;7.37;;;18.50;99.90;;;;;;6134585;23;20185;-91
2023/05/28 21:34:48;;;;;;;14.23;7.10;;;18.40;99.90;;;;;;6132141;23;20252;-91
2023/05/28 21:37:19;;;;;;;15.13;7.10;;;18.30;99.90;;;;;;6127124;23;20178;-94
2023/05/28 21:39:52;;;;;;;13.30;6.90;;;18.60;99.90;;;;;;6126244;23;20629;-93
2023/05/28 21:42:27;;;;;;;17.17;6.43;;;18.40;99.90;;;;;;6128910;23;20258;-91
2023/05/28 21:44:58;;;;;;;12.07;6.67;;;18.70;99.90;;;;;;6128016;23;20200;-92
2023/05/28 21:47:31;;;;;;;15.27;6.77;;;19.00;99.90;;;;;;6129149;23;20188;-92
2023/05/28 21:50:03;;;;;;;11.33;6.73;;;18.90;99.90;;;;;;6127888;23;20524;-91
2023/05/28 21:52:37;;;;;;;13.63;7.47;;;19.20;99.90;;;;;;6129837;23;20186;-91
2023/05/28 21:55:09;;;;;;;14.53;7.37;;;19.30;99.90;;;;;;6131362;23;20198;-93
2023/05/28 21:57:43;;;;;;;11.57;6.70;;;19.20;99.90;;;;;;6131106;23;20189;-91
2023/05/28 22:00:15;;;;;;;11.97;7.17;;;19.30;99.90;;;;;;6132604;23;20190;-90
2023/05/28 22:02:48;;;;;;;14.60;7.03;;;19.50;99.90;;;;;;6132994;23;20223;-92
2023/05/28 22:05:23;;;;;;;12.53;7.17;;;19.80;99.90;;;;;;6131529;23;20189;-91
2023/05/28 22:07:57;;;;;;;12.97;6.83;;;19.90;99.90;;;;;;6130296;23;20177;-92
2023/05/28 22:10:29;;;;;;;13.30;6.47;;;19.70;99.90;;;;;;6131218;23;20195;-91
2023/05/28 22:13:03;;;;;;;12.97;6.73;;;19.50;99.90;;;;;;6131644;23;20497;-92
2023/05/28 22:15:35;;;;;;;13.80;6.47;;;19.00;99.90;;;;;;6132965;23;20213;-92
2023/05/28 22:18:07;;;;;;;11.23;6.50;;;19.10;99.90;;;;;;6128676;23;20556;-91
2023/05/28 22:20:39;;;;;;;13.50;6.77;;;19.50;99.90;;;;;;6130617;23;20186;-93
2023/05/28 22:23:14;;;;;;;15.23;6.63;;;19.90;99.90;;;;;;6130391;23;20256;-91
2023/05/28 22:25:47;;;;;;;12.93;6.27;;;20.00;99.90;;;;;;6129838;23;20174;-92
2023/05/28 22:28:22;;;;;;;12.57;6.00;;;20.30;99.90;;;;;;6128539;23;20268;-92
2023/05/28 22:30:55;;;;;;;12.17;5.97;;;20.50;99.90;;;;;;6105433;23;20261;-93
2023/05/28 22:33:28;;;;;;;9.93;5.90;;;20.20;99.90;;;;;;6130518;23;20516;-93
2023/05/28 22:36:01;;;;;;;10.83;5.97;;;20.00;99.90;;;;;;6130912;23;20206;-93
2023/05/28 22:38:32;;;;;;;9.80;5.77;;;20.10;99.90;;;;;;6104435;23;20444;-92
2023/05/28 22:41:04;;;;;;;11.27;5.60;;;20.40;99.90;;;;;;6130692;23;20178;-95